createdAt,value
2022-12-16T00:02:11.937Z,13.15
2022-12-16T00:05:13.879Z,13.45
2022-12-16T00:08:15.736Z,12.38
2022-12-16T00:11:17.631Z,12.60
2022-12-16T00:14:19.520Z,12.73
2022-12-16T00:17:21.422Z,12.88
2022-12-16T00:20:23.307Z,12.60
2022-12-16T00:23:25.256Z,12.52
2022-12-16T00:26:27.131Z,12.45
2022-12-16T00:29:29.018Z,11.57
2022-12-16T00:32:31.079Z,12.93
2022-12-16T00:35:33.083Z,12.98
2022-12-16T00:38:35.326Z,11.57
2022-12-16T00:41:37.464Z,12.00
2022-12-16T00:44:39.314Z,12.05
2022-12-16T00:47:43.921Z,12.48
2022-12-16T00:50:55.297Z,11.65
2022-12-16T00:53:57.542Z,11.30
2022-12-16T00:56:59.387Z,12.00
2022-12-16T01:00:01.387Z,10.98
2022-12-16T01:03:05.935Z,12.20
2022-12-16T01:06:13.116Z,11.18
2022-12-16T01:09:15.005Z,10.95
2022-12-16T01:12:16.911Z,10.63
2022-12-16T01:15:19.268Z,11.32
2022-12-16T01:18:21.570Z,10.73
2022-12-16T01:21:23.491Z,10.82
2022-12-16T01:24:25.425Z,10.15
2022-12-16T01:27:28.597Z,10.05
2022-12-16T01:30:31.179Z,12.40
2022-12-16T01:33:33.709Z,10.75
2022-12-16T01:36:36.105Z,11.68
2022-12-16T01:39:38.386Z,10.10
2022-12-16T01:42:40.241Z,9.55
2022-12-16T01:45:42.340Z,10.40
2022-12-16T01:49:08.155Z,10.43
2022-12-16T01:52:21.801Z,10.25
2022-12-16T01:55:34.305Z,10.32
2022-12-16T01:58:40.716Z,9.20
2022-12-16T02:01:42.740Z,9.98
2022-12-16T02:04:44.821Z,11.07
2022-12-16T02:08:02.014Z,9.80
2022-12-16T02:11:22.752Z,9.93
2022-12-16T02:14:39.623Z,9.35
2022-12-16T02:18:12.784Z,9.77
2022-12-16T02:21:42.519Z,9.95
2022-12-16T02:25:05.471Z,10.10
2022-12-16T02:28:25.773Z,8.88
2022-12-16T02:31:53.967Z,9.07
2022-12-16T02:35:21.678Z,9.57
2022-12-16T02:38:26.605Z,9.98
2022-12-16T02:41:31.529Z,10.18
2022-12-16T02:45:00.658Z,8.93
2022-12-16T02:48:02.489Z,9.30
2022-12-16T02:51:04.535Z,9.10
2022-12-16T02:54:12.946Z,9.63
2022-12-16T02:57:34.649Z,9.57
2022-12-16T03:01:13.447Z,10.43
2022-12-16T03:04:30.735Z,8.65
2022-12-16T03:07:35.478Z,9.07
2022-12-16T03:10:56.901Z,9.02
2022-12-16T03:14:01.036Z,9.35
2022-12-16T03:17:04.668Z,9.23
2022-12-16T03:20:16.764Z,9.27
2022-12-16T03:23:27.974Z,9.70
2022-12-16T03:26:44.599Z,8.68
2022-12-16T03:30:09.801Z,8.90
2022-12-16T03:33:47.405Z,8.23
2022-12-16T03:36:54.100Z,8.38
2022-12-16T03:40:00.901Z,9.60
2022-12-16T03:43:06.445Z,8.85
2022-12-16T03:46:10.396Z,8.85
2022-12-16T03:49:12.446Z,9.65
2022-12-16T03:52:14.283Z,8.57
2022-12-16T03:55:16.180Z,8.45
2022-12-16T03:58:18.043Z,9.25
2022-12-16T04:01:20.011Z,10.02
2022-12-16T04:04:21.958Z,10.30
2022-12-16T04:07:24.044Z,9.52
2022-12-16T04:10:25.954Z,9.70
2022-12-16T04:13:30.724Z,9.35
2022-12-16T04:16:34.080Z,9.63
2022-12-16T04:19:37.751Z,9.25
2022-12-16T04:22:43.187Z,8.95
2022-12-16T04:25:45.193Z,9.20
2022-12-16T04:28:47.296Z,8.80
2022-12-16T04:31:49.998Z,9.32
2022-12-16T04:34:51.866Z,8.40
2022-12-16T04:37:53.670Z,8.98
2022-12-16T04:40:55.448Z,9.40
2022-12-16T04:43:57.682Z,9.55
2022-12-16T04:46:59.760Z,8.90
2022-12-16T04:50:01.756Z,9.65
2022-12-16T04:53:04.115Z,9.10
2022-12-16T04:56:06.225Z,8.70
2022-12-16T04:59:08.123Z,9.77
2022-12-16T05:02:10.127Z,9.68
2022-12-16T05:05:12.070Z,8.70
2022-12-16T05:08:13.900Z,8.90
2022-12-16T05:11:15.978Z,8.57
2022-12-16T05:14:17.844Z,9.75
2022-12-16T05:17:20.450Z,9.02
2022-12-16T05:20:22.278Z,8.95
2022-12-16T05:23:24.126Z,10.43
2022-12-16T05:26:25.936Z,9.98
2022-12-16T05:29:27.828Z,9.48
2022-12-16T05:32:29.642Z,9.00
2022-12-16T05:35:31.476Z,9.35
2022-12-16T05:38:33.362Z,8.82
2022-12-16T05:41:35.216Z,9.30
2022-12-16T05:44:37.036Z,8.35
2022-12-16T05:47:40.318Z,8.70
2022-12-16T05:50:42.191Z,7.85
2022-12-16T05:53:46.577Z,8.93
2022-12-16T05:56:48.420Z,7.70
2022-12-16T05:59:50.227Z,9.50
2022-12-16T06:02:52.200Z,8.45
2022-12-16T06:05:54.186Z,9.73
2022-12-16T06:08:55.987Z,9.57
2022-12-16T06:11:57.883Z,8.35
2022-12-16T06:14:59.722Z,9.10
2022-12-16T06:18:03.905Z,9.18
2022-12-16T06:21:05.940Z,9.52
2022-12-16T06:24:07.928Z,8.60
2022-12-16T06:27:09.708Z,10.57
2022-12-16T06:30:11.711Z,10.13
2022-12-16T06:33:13.536Z,10.15
2022-12-16T06:36:15.409Z,10.95
2022-12-16T06:39:17.229Z,10.77
2022-12-16T06:42:19.062Z,10.40
2022-12-16T06:45:20.884Z,9.27
2022-12-16T06:48:22.715Z,9.27
2022-12-16T06:51:24.555Z,10.05
2022-12-16T06:54:26.379Z,8.98
2022-12-16T06:57:28.223Z,9.57
2022-12-16T07:00:30.128Z,9.45
2022-12-16T07:03:38.385Z,8.90
2022-12-16T07:06:41.004Z,8.65
2022-12-16T07:09:43.016Z,8.75
2022-12-16T07:12:44.929Z,9.25
2022-12-16T07:15:46.973Z,8.27
2022-12-16T07:18:49.000Z,8.18
2022-12-16T07:21:50.821Z,9.70
2022-12-16T07:24:52.688Z,9.27
2022-12-16T07:27:54.517Z,8.70
2022-12-16T07:30:56.356Z,7.97
2022-12-16T07:33:58.314Z,8.77
2022-12-16T07:37:00.228Z,8.57
2022-12-16T07:40:02.162Z,7.95
2022-12-16T07:43:04.011Z,8.68
2022-12-16T07:46:05.956Z,8.18
2022-12-16T07:49:07.844Z,8.00
2022-12-16T07:52:09.749Z,8.35
2022-12-16T07:55:11.619Z,9.02
2022-12-16T07:58:13.443Z,7.97
2022-12-16T08:01:15.860Z,8.48
2022-12-16T08:04:17.760Z,9.57
2022-12-16T08:07:19.627Z,8.15
2022-12-16T08:10:21.603Z,10.40
2022-12-16T08:13:26.119Z,10.23
2022-12-16T08:16:28.211Z,8.75
2022-12-16T08:19:30.136Z,9.73
2022-12-16T08:22:32.002Z,10.40
2022-12-16T08:25:33.830Z,8.60
2022-12-16T08:28:35.699Z,8.80
2022-12-16T08:31:37.559Z,9.32
2022-12-16T08:34:39.434Z,8.70
2022-12-16T08:37:41.253Z,8.73
2022-12-16T08:40:44.508Z,9.00
2022-12-16T08:43:46.333Z,9.45
2022-12-16T08:46:48.215Z,8.65
2022-12-16T08:49:51.097Z,9.02
2022-12-16T08:52:55.360Z,9.77
2022-12-16T08:55:57.237Z,8.75
2022-12-16T08:58:59.238Z,8.85
2022-12-16T09:02:01.177Z,8.75
2022-12-16T09:05:04.109Z,8.18
2022-12-16T09:08:05.981Z,8.70
2022-12-16T09:11:08.146Z,7.40
2022-12-16T09:14:09.968Z,7.32
2022-12-16T09:17:11.781Z,8.15
2022-12-16T09:20:13.770Z,8.25
2022-12-16T09:23:15.624Z,7.65
2022-12-16T09:26:17.531Z,7.38
2022-12-16T09:29:19.493Z,7.88
2022-12-16T09:32:21.669Z,7.70
2022-12-16T09:35:23.521Z,7.43
2022-12-16T09:38:27.604Z,7.50
2022-12-16T09:41:45.747Z,6.80
2022-12-16T09:45:06.898Z,6.78
2022-12-16T09:48:18.696Z,7.60
2022-12-16T09:51:21.432Z,6.38
2022-12-16T09:54:28.437Z,6.95
2022-12-16T09:57:32.068Z,6.63
2022-12-16T10:00:35.148Z,6.85
2022-12-16T10:03:40.383Z,7.25
2022-12-16T10:06:52.417Z,7.00
2022-12-16T10:10:09.249Z,6.93
2022-12-16T10:13:37.273Z,7.45
2022-12-16T10:16:47.468Z,6.85
2022-12-16T10:19:49.240Z,7.13
2022-12-16T10:23:02.671Z,6.90
2022-12-16T10:26:47.805Z,7.07
2022-12-16T10:29:49.622Z,6.53
2022-12-16T10:35:56.094Z,6.22
2022-12-16T10:39:14.800Z,6.18
2022-12-16T10:42:33.710Z,6.30
2022-12-16T10:45:44.701Z,6.22
2022-12-16T10:48:55.012Z,7.40
2022-12-16T10:51:59.190Z,6.93
2022-12-16T10:55:20.228Z,6.32
2022-12-16T10:58:44.041Z,7.05
2022-12-16T11:02:18.426Z,7.28
2022-12-16T11:05:33.959Z,6.55
2022-12-16T11:08:36.405Z,7.72
2022-12-16T11:11:38.316Z,7.68
2022-12-16T11:14:40.204Z,7.97
2022-12-16T11:18:05.173Z,7.00
2022-12-16T11:21:17.195Z,6.68
2022-12-16T11:24:20.742Z,7.78
2022-12-16T11:27:25.639Z,7.25
2022-12-16T11:30:27.465Z,6.43
2022-12-16T11:33:29.485Z,7.38
2022-12-16T11:36:35.731Z,7.38
2022-12-16T11:39:39.768Z,7.35
2022-12-16T11:42:41.769Z,7.45
2022-12-16T11:45:43.890Z,7.50
2022-12-16T11:49:02.769Z,7.25
2022-12-16T12:03:24.636Z,6.47
2022-12-16T12:06:59.804Z,8.15
2022-12-16T12:10:23.539Z,7.25
2022-12-16T12:13:53.524Z,7.93
2022-12-16T12:17:12.827Z,7.63
2022-12-16T12:20:40.879Z,7.47
2022-12-16T12:23:45.369Z,7.80
2022-12-16T12:27:02.744Z,7.70
2022-12-16T12:30:16.366Z,7.40
2022-12-16T12:33:31.097Z,8.43
2022-12-16T12:36:45.081Z,7.68
2022-12-16T12:39:55.620Z,7.57
2022-12-16T12:42:57.574Z,8.20
2022-12-16T12:46:08.950Z,9.40
2022-12-16T12:49:21.866Z,8.15
2022-12-16T12:52:30.278Z,8.18
2022-12-16T12:55:44.799Z,8.15
2022-12-16T12:58:49.468Z,8.23
2022-12-16T13:01:53.964Z,8.88
2022-12-16T13:04:59.470Z,9.27
2022-12-16T13:08:38.859Z,8.82
2022-12-16T13:12:06.761Z,8.35
2022-12-16T13:15:37.999Z,9.48
2022-12-16T13:18:39.857Z,9.45
2022-12-16T13:21:41.643Z,19.48
2022-12-16T13:24:50.190Z,8.75
2022-12-16T13:27:56.407Z,7.97
2022-12-16T13:31:05.226Z,8.55
2022-12-16T13:34:28.833Z,8.75
2022-12-16T13:37:34.056Z,8.52
2022-12-16T13:40:48.985Z,8.23
2022-12-16T13:43:56.919Z,7.00
2022-12-16T13:47:01.590Z,8.10
2022-12-16T13:50:36.156Z,7.93
2022-12-16T13:53:52.221Z,8.52
2022-12-16T13:56:55.387Z,9.25
2022-12-16T14:00:00.661Z,8.70
2022-12-16T14:03:05.278Z,9.05
2022-12-16T14:06:17.378Z,7.40
2022-12-16T14:09:33.400Z,7.97
2022-12-16T14:13:06.699Z,7.20
2022-12-16T14:16:30.414Z,8.05
2022-12-16T14:20:00.965Z,7.97
2022-12-16T14:23:54.893Z,8.23
2022-12-16T14:26:45.727Z,8.18
2022-12-16T14:29:48.858Z,6.78
2022-12-16T14:32:50.730Z,7.55
2022-12-16T14:35:52.574Z,7.18
2022-12-16T14:39:02.520Z,7.25
2022-12-16T14:42:16.067Z,7.22
2022-12-16T14:45:38.040Z,6.55
2022-12-16T14:48:44.532Z,7.28
2022-12-16T14:51:53.325Z,6.70
2022-12-16T14:54:55.499Z,6.70
2022-12-16T14:58:12.686Z,7.03
2022-12-16T15:01:22.308Z,6.35
2022-12-16T15:04:24.747Z,7.80
2022-12-16T15:07:33.858Z,6.95
2022-12-16T15:10:36.123Z,7.60
2022-12-16T15:13:40.355Z,7.25
2022-12-16T15:16:44.346Z,7.03
2022-12-16T15:19:52.907Z,6.57
2022-12-16T15:22:57.167Z,7.20
2022-12-16T15:26:03.820Z,7.70
2022-12-16T15:29:26.204Z,7.28
2022-12-16T15:32:28.460Z,8.20
2022-12-16T15:35:36.468Z,6.55
2022-12-16T15:38:41.101Z,8.10
2022-12-16T15:41:47.656Z,8.48
2022-12-16T15:44:51.563Z,9.30
2022-12-16T15:47:53.734Z,8.95
2022-12-16T15:50:55.662Z,9.30
2022-12-16T15:54:04.242Z,9.02
2022-12-16T15:57:29.536Z,8.77
2022-12-16T16:00:32.095Z,8.50
2022-12-16T16:03:35.008Z,7.93
2022-12-16T16:06:37.546Z,8.13
2022-12-16T16:09:40.050Z,8.38
2022-12-16T16:12:44.779Z,9.32
2022-12-16T16:15:47.774Z,8.50
2022-12-16T16:18:49.862Z,8.38
2022-12-16T16:21:51.876Z,8.10
2022-12-16T16:24:53.891Z,8.98
2022-12-16T16:27:56.038Z,9.50
2022-12-16T16:30:58.104Z,7.72
2022-12-16T16:34:00.205Z,8.75
2022-12-16T16:37:02.197Z,8.20
2022-12-16T16:40:33.886Z,8.57
2022-12-16T16:43:36.021Z,9.95
2022-12-16T16:46:42.265Z,8.43
2022-12-16T16:49:47.987Z,9.25
2022-12-16T16:52:49.824Z,9.93
2022-12-16T16:55:53.608Z,8.63
2022-12-16T16:58:55.415Z,9.57
2022-12-16T17:01:57.756Z,8.52
2022-12-16T17:05:01.608Z,9.27
2022-12-16T17:08:03.454Z,9.75
2022-12-16T17:11:16.791Z,10.05
2022-12-16T17:14:20.917Z,9.73
2022-12-16T17:17:22.832Z,10.85
2022-12-16T17:20:24.666Z,10.07
2022-12-16T17:23:26.532Z,10.13
2022-12-16T17:26:28.566Z,8.73
2022-12-16T17:29:30.569Z,8.93
2022-12-16T17:32:32.434Z,8.38
2022-12-16T17:35:38.465Z,9.57
2022-12-16T17:38:43.433Z,9.10
2022-12-16T17:41:45.674Z,8.43
2022-12-16T17:44:47.548Z,9.23
2022-12-16T17:47:49.346Z,7.82
2022-12-16T17:50:51.198Z,8.68
2022-12-16T17:53:58.657Z,8.82
2022-12-16T17:57:02.615Z,8.77
2022-12-16T18:00:04.852Z,9.13
2022-12-16T18:03:14.355Z,9.50
2022-12-16T18:06:16.387Z,8.32
2022-12-16T18:09:35.597Z,8.18
2022-12-16T18:12:37.996Z,9.15
2022-12-16T18:15:40.040Z,8.88
2022-12-16T18:18:46.220Z,8.95
2022-12-16T18:21:48.423Z,10.18
2022-12-16T18:24:50.251Z,11.80
2022-12-16T18:27:52.272Z,10.60
2022-12-16T18:30:54.106Z,11.07
2022-12-16T18:33:58.581Z,11.43
2022-12-16T18:37:00.534Z,11.13
2022-12-16T18:40:02.483Z,10.32
2022-12-16T18:43:04.409Z,9.68
2022-12-16T18:46:08.566Z,8.57
2022-12-16T18:49:10.495Z,8.90
2022-12-16T18:52:12.387Z,7.90
2022-12-16T18:55:14.410Z,8.43
2022-12-16T18:58:42.817Z,8.13
2022-12-16T19:01:38.746Z,8.02
2022-12-16T19:04:40.694Z,7.38
2022-12-16T19:07:42.565Z,8.95
2022-12-16T19:10:44.612Z,7.65
2022-12-16T19:13:46.476Z,8.18
2022-12-16T19:16:50.598Z,6.97
2022-12-16T19:19:52.782Z,7.35
2022-12-16T19:22:55.297Z,7.32
2022-12-16T19:26:00.497Z,7.07
2022-12-16T19:29:02.389Z,8.15
2022-12-16T19:35:11.423Z,8.07
2022-12-16T19:38:14.074Z,9.73
2022-12-16T19:41:17.517Z,9.48
2022-12-16T19:50:23.196Z,9.65
2022-12-16T19:53:25.089Z,9.40
2022-12-16T19:56:27.078Z,8.82
2022-12-16T19:59:35.051Z,8.05
2022-12-16T20:02:37.102Z,8.02
2022-12-16T20:05:39.063Z,10.02
2022-12-16T20:08:40.906Z,8.80
2022-12-16T20:11:43.373Z,9.57
2022-12-16T20:14:45.292Z,9.48
2022-12-16T20:17:47.187Z,8.20
2022-12-16T20:20:49.235Z,10.10
2022-12-16T20:23:51.412Z,15.63
2022-12-16T20:26:55.388Z,11.98
2022-12-16T20:29:57.733Z,13.52
2022-12-16T20:32:59.644Z,11.73
2022-12-16T20:36:04.334Z,11.45
2022-12-16T20:39:06.302Z,11.40
2022-12-16T20:42:08.270Z,13.07
2022-12-16T20:45:14.970Z,12.05
2022-12-16T20:48:17.148Z,11.57
2022-12-16T20:51:25.938Z,11.85
2022-12-16T21:03:39.672Z,9.50
2022-12-16T21:06:41.907Z,10.43
2022-12-16T21:09:43.861Z,10.23
2022-12-16T21:12:45.802Z,10.77
2022-12-16T21:15:47.633Z,10.88
2022-12-16T21:18:51.969Z,9.48
2022-12-16T21:21:53.860Z,9.82
2022-12-16T21:24:55.768Z,10.20
2022-12-16T21:27:59.286Z,15.75
2022-12-16T21:31:01.389Z,13.18
2022-12-16T21:34:03.816Z,13.73
2022-12-16T21:37:05.683Z,13.98
2022-12-16T21:40:10.345Z,12.77
2022-12-16T21:43:12.337Z,17.33
2022-12-16T21:46:14.284Z,17.88
2022-12-16T21:49:16.170Z,21.13
2022-12-16T21:52:18.251Z,18.63
2022-12-16T21:55:22.711Z,16.48
2022-12-16T21:58:24.659Z,14.50
2022-12-16T22:01:26.631Z,12.90
2022-12-16T22:04:28.478Z,12.85
2022-12-16T22:07:30.429Z,12.98
2022-12-16T22:10:32.289Z,11.80
2022-12-16T22:13:34.169Z,10.60
2022-12-16T22:16:35.994Z,9.27
2022-12-16T22:19:37.969Z,9.48
2022-12-16T22:22:42.389Z,12.32
2022-12-16T22:25:44.476Z,9.82
2022-12-16T22:28:46.446Z,10.60
2022-12-16T22:31:48.278Z,11.30
2022-12-16T22:34:50.202Z,9.80
2022-12-16T22:37:52.122Z,11.00
2022-12-16T22:40:59.867Z,10.38
2022-12-16T22:44:02.796Z,9.38
2022-12-16T22:47:06.748Z,10.07
2022-12-16T22:50:09.785Z,12.10
2022-12-16T22:53:14.010Z,11.18
2022-12-16T22:56:15.860Z,12.60
2022-12-16T22:59:17.837Z,10.63
2022-12-16T23:02:19.637Z,10.75
2022-12-16T23:05:27.276Z,10.57
2022-12-16T23:08:29.763Z,13.02
2022-12-16T23:11:36.863Z,10.90
2022-12-16T23:14:42.760Z,11.85
2022-12-16T23:17:45.042Z,10.77
2022-12-16T23:20:48.353Z,10.98
2022-12-16T23:24:10.619Z,11.13
2022-12-16T23:27:12.501Z,10.52
2022-12-16T23:30:16.743Z,10.77
2022-12-16T23:33:18.671Z,11.40
2022-12-16T23:36:20.505Z,12.13
2022-12-16T23:39:22.509Z,11.05
2022-12-16T23:42:24.531Z,11.02
2022-12-16T23:45:26.456Z,11.30
2022-12-16T23:48:30.972Z,11.52
2022-12-16T23:51:32.809Z,11.00
2022-12-16T23:54:34.676Z,12.02
2022-12-16T23:57:36.597Z,10.23
